Terminal Aerodrome Forecast
Issued by NWS Louisville, KY

Home | Current Version | Previous Version | Text Only | Print | Product List | Glossary On
Versions: 1 2 3 4 5 6 7 8 9 10 11 12 13
000
FTUS43 KLMK 311100
TAFBWG
TAF
KBWG 311127Z 3112/0112 VRB03KT P6SM VCSH BKN040 OVC060
     FM311400 29005KT P6SM OVC030
     FM311800 33012G22KT P6SM VCSH OVC030
     FM010100 31013KT P6SM BKN050
     FM010900 30012KT P6SM SCT050=

USA.gov is the U.S. government's official web portal to all federal, state and local government web resources and services.